DAL962 KDAB-KATL
Flight info
| Callsign | DAL962 |
|---|---|
| Flight time | N/A |
| Altitude | 32000 |
| Route | ROYES7 CRG SHRKS LAIRI LARZZ JJEDI4 |
| Aircraft | B738/M-SDE2E3FGHIRWXY/LB1 |
Departure
| Time | 2026-05-06 01:46 |
|---|---|
| Airport | Daytona Beach International Airport (KDAB) |
Arrival
| Time | N/A |
|---|---|
| Airport | Hartsfield Jackson Atlanta International Airport (KATL) |
| Time | Latitude | Longitude | Altitude | Speed | Heading |
|---|---|---|---|---|---|
| 2026-05-06 01:27 | 29.18343 | -81.06171 | 31 ft | 0 kts | 96° |
| 2026-05-06 01:34 | 29.18343 | -81.06172 | 31 ft | 1 kts | 96° |
| 2026-05-06 01:34 | 29.18345 | -81.06189 | 31 ft | 2 kts | 118° |
| 2026-05-06 01:34 | 29.18355 | -81.06201 | 31 ft | 2 kts | 151° |
| 2026-05-06 01:35 | 29.18370 | -81.06206 | 31 ft | 1 kts | 185° |
| 2026-05-06 01:35 | 29.18376 | -81.06204 | 31 ft | 1 kts | 199° |
| 2026-05-06 01:35 | 29.18380 | -81.06203 | 31 ft | 0 kts | 194° |
| 2026-05-06 01:40 | 29.18374 | -81.06205 | 31 ft | 5 kts | 194° |
| 2026-05-06 01:40 | 29.18284 | -81.06226 | 31 ft | 15 kts | 182° |
| 2026-05-06 01:40 | 29.18185 | -81.06196 | 31 ft | 14 kts | 156° |
| 2026-05-06 01:41 | 29.18095 | -81.06159 | 31 ft | 13 kts | 184° |
| 2026-05-06 01:41 | 29.18034 | -81.06233 | 31 ft | 15 kts | 245° |
| 2026-05-06 01:41 | 29.17975 | -81.06379 | 31 ft | 20 kts | 245° |
| 2026-05-06 01:41 | 29.17915 | -81.06529 | 31 ft | 20 kts | 245° |
| 2026-05-06 01:42 | 29.17856 | -81.06673 | 31 ft | 21 kts | 245° |
| 2026-05-06 01:42 | 29.17792 | -81.06834 | 31 ft | 22 kts | 245° |
| 2026-05-06 01:42 | 29.17729 | -81.06990 | 31 ft | 21 kts | 245° |
| 2026-05-06 01:42 | 29.17659 | -81.07163 | 31 ft | 25 kts | 245° |
| 2026-05-06 01:43 | 29.17588 | -81.07338 | 31 ft | 19 kts | 242° |
| 2026-05-06 01:43 | 29.17529 | -81.07455 | 31 ft | 16 kts | 239° |
| 2026-05-06 01:43 | 29.17474 | -81.07566 | 31 ft | 15 kts | 242° |
| 2026-05-06 01:43 | 29.17402 | -81.07646 | 31 ft | 14 kts | 185° |
| 2026-05-06 01:44 | 29.17335 | -81.07593 | 31 ft | 11 kts | 84° |
| 2026-05-06 01:44 | 29.17346 | -81.07555 | 31 ft | 0 kts | 66° |
| 2026-05-06 01:45 | 29.17346 | -81.07554 | 31 ft | 1 kts | 66° |
| 2026-05-06 01:45 | 29.17437 | -81.07328 | 31 ft | 72 kts | 65° |
| 2026-05-06 01:46 | 29.17758 | -81.06536 | 31 ft | 145 kts | 65° |
| 2026-05-06 01:46 | 29.18265 | -81.05334 | 372 ft | 177 kts | 64° |
| 2026-05-06 01:46 | 29.18800 | -81.04160 | 1414 ft | 169 kts | 63° |
| 2026-05-06 01:46 | 29.19607 | -81.03172 | 2069 ft | 180 kts | 27° |
| 2026-05-06 01:47 | 29.20893 | -81.03100 | 2533 ft | 199 kts | 340° |
| 2026-05-06 01:47 | 29.21935 | -81.04149 | 3010 ft | 215 kts | 298° |
| 2026-05-06 01:47 | 29.22387 | -81.05817 | 3590 ft | 227 kts | 281° |
| 2026-05-06 01:47 | 29.22703 | -81.07619 | 4236 ft | 236 kts | 282° |